MST,Max TemperatureF,Mean TemperatureF,Min TemperatureF,Max Dew PointF,MeanDew PointF,Min DewpointF,Max Humidity, Mean Humidity, Min Humidity, Max Sea Level PressureIn, Mean Sea Level PressureIn, Min Sea Level PressureIn, Max VisibilityMiles, Mean VisibilityMiles, Min VisibilityMiles, Max Wind SpeedMPH, Mean Wind SpeedMPH, Max Gust SpeedMPH,PrecipitationIn, CloudCover, Events, WindDirDegrees
2013-12-1,45,33,21,24,16,11,65,47,33,30.34,30.23,30.12,10,10,10,33,15,48,0.00,0,,274
2013-12-2,50,42,33,24,21,16,60,42,27,30.12,29.97,29.82,10,10,10,33,20,48,0.00,2,,257
2013-12-3,42,38,34,27,22,17,73,55,35,29.82,29.68,29.53,10,10,10,18,10,25,0.00,6,,203
2013-12-4,37,19,1,27,11,-2,88,76,57,29.90,29.61,29.42,10,8,0,25,15,36,0.00,6,,131
2013-12-5,15,6,-4,5,-2,-9,87,79,62,29.93,29.87,29.78,10,10,4,16,7,23,0.00,2,,132
2013-12-6,23,10,-3,3,-3,-8,84,65,32,30.06,29.99,29.91,10,10,10,17,5,24,0.00,3,,152
2013-12-7,25,16,6,15,6,-1,80,60,45,30.05,29.83,29.64,10,10,10,14,5,22,0.00,7,,174
2013-12-8,23,17,10,17,2,-7,83,49,31,29.94,29.76,29.59,10,9,2,25,11,40,0.00,3,,231
2013-12-9,19,10,0,-5,-8,-10,65,43,30,30.27,30.09,29.92,10,10,10,21,9,30,0.00,0,,280
2013-12-10,35,22,8,6,0,-8,49,35,27,30.27,30.19,30.11,10,10,10,26,13,41,0.00,0,,234
2013-12-11,41,26,12,7,5,2,72,41,23,30.49,30.37,30.25,10,10,10,25,9,36,0.00,0,,278
2013-12-12,50,34,17,8,3,-2,48,34,12,30.49,30.34,30.13,10,10,10,18,11,28,0.00,0,,311
2013-12-13,45,32,18,14,9,3,60,40,21,30.20,30.04,29.95,10,10,10,15,7,25,0.00,1,,310
2013-12-14,39,27,15,11,9,6,67,47,28,30.41,30.33,30.20,10,10,10,17,8,30,0.00,0,,277
2013-12-15,49,35,21,16,14,10,65,44,25,30.42,30.38,30.34,10,10,10,15,7,22,0.00,0,,280
2013-12-16,53,41,29,16,14,11,55,37,20,30.45,30.38,30.32,10,10,10,18,8,25,0.00,0,,273
2013-12-17,52,38,23,17,13,11,62,43,20,30.54,30.45,30.35,10,10,10,15,5,20,0.00,0,,315
2013-12-18,56,40,25,15,10,2,57,33,11,30.34,30.11,29.91,10,10,10,24,11,37,0.00,0,,276
2013-12-19,48,40,32,22,15,11,58,37,23,29.90,29.81,29.72,10,10,10,17,10,29,0.00,0,,222
2013-12-20,39,31,23,24,20,15,88,62,45,29.81,29.75,29.70,10,10,7,17,8,26,0.00,2,,209
2013-12-21,35,26,18,21,13,8,75,54,34,29.89,29.68,29.57,10,10,7,17,8,24,0.00,4,,308
2013-12-22,32,20,9,10,6,2,78,52,27,30.21,30.07,29.90,10,10,10,28,9,38,0.00,1,,240
2013-12-23,38,32,27,13,10,6,48,40,32,30.39,30.32,30.20,10,10,10,24,18,36,0.00,0,,231
2013-12-24,45,31,16,30,17,6,85,50,36,30.40,30.27,30.16,10,10,0,29,15,37,0.00,2,,260
2013-12-25,40,26,12,6,2,-2,67,39,20,30.49,30.43,30.39,10,10,10,16,7,21,0.00,0,,289
2013-12-26,48,32,17,12,6,2,61,39,17,30.47,30.42,30.34,10,10,10,14,7,,0.00,0,,277
2013-12-27,51,34,18,18,13,10,72,49,23,30.47,30.39,30.26,10,10,10,15,5,16,0.00,0,,264
2013-12-28,48,37,26,32,20,16,94,59,29,30.25,30.09,29.98,10,9,1,18,9,29,0.00,2,,323
2013-12-29,33,26,18,26,18,9,94,70,42,30.24,30.15,30.10,10,9,1,18,7,25,0.00,3,,190
2013-12-30,42,31,20,13,10,7,62,41,28,30.33,30.25,30.09,10,10,10,22,10,32,0.00,0,,281
2013-12-31,46,35,24,21,16,10,56,43,32,30.28,30.19,30.09,10,10,10,28,13,41,0.00,0,,246